Time;durP1;ratioP1;P1;durP2;ratioP2;P2;SDS_P1;SDS_P2;PMS_P1;PMS_P2;Temp;Humidity;BMP_temperature;BMP_pressure;BME280_temperature;BME280_humidity;BME280_pressure;Samples;Min_cycle;Max_cycle;Signal;HPM_P1;HPM_P2
2022/04/09 00:00:25;;;;;;;4.10;2.17;;;;;;;;;;5018273;28;20230;-64
2022/04/09 00:02:56;;;;;;;1.20;1.20;;;;;;;;;;5013980;28;20233;-63
2022/04/09 00:05:24;;;;;;;1.33;1.03;;;;;;;;;;5018581;28;20205;-64
2022/04/09 00:07:51;;;;;;;1.67;1.67;;;;;;;;;;5010725;28;20209;-65
2022/04/09 00:10:22;;;;;;;4.23;3.93;;;;;;;;;;5005233;28;20303;-63
2022/04/09 00:12:50;;;;;;;1.13;1.10;;;;;;;;;;5014601;28;20239;-66
2022/04/09 00:15:17;;;;;;;0.60;0.60;;;;;;;;;;5009499;28;20720;-63
2022/04/09 00:17:46;;;;;;;0.80;0.80;;;;;;;;;;5015765;28;20239;-64
2022/04/09 00:20:14;;;;;;;0.70;0.70;;;;;;;;;;5015911;28;20266;-64
2022/04/09 00:22:42;;;;;;;1.27;0.70;;;;;;;;;;5009546;28;20224;-63
2022/04/09 00:25:10;;;;;;;0.80;0.80;;;;;;;;;;5011571;28;20260;-64
2022/04/09 00:27:38;;;;;;;1.40;1.30;;;;;;;;;;5012243;28;20673;-64
2022/04/09 00:30:06;;;;;;;3.77;2.53;;;;;;;;;;5012984;28;20224;-65
2022/04/09 00:32:34;;;;;;;2.47;2.00;;;;;;;;;;5011908;28;20224;-63
2022/04/09 00:35:02;;;;;;;0.90;0.90;;;;;;;;;;5016478;28;20274;-64
2022/04/09 00:37:30;;;;;;;1.60;1.50;;;;;;;;;;5024669;28;20229;-65
2022/04/09 00:39:59;;;;;;;1.10;1.10;;;;;;;;;;5021906;28;20211;-64
2022/04/09 00:42:27;;;;;;;1.33;1.03;;;;;;;;;;5016071;28;20314;-66
2022/04/09 00:44:55;;;;;;;3.40;3.20;;;;;;;;;;5013811;28;20200;-64
2022/04/09 00:47:23;;;;;;;1.40;1.40;;;;;;;;;;5023252;28;20918;-63
2022/04/09 00:49:50;;;;;;;1.10;1.10;;;;;;;;;;5048123;28;20218;-64
2022/04/09 00:52:19;;;;;;;0.83;0.83;;;;;;;;;;5015383;28;20232;-64
2022/04/09 00:54:49;;;;;;;0.70;0.70;;;;;;;;;;5014868;28;20211;-63
2022/04/09 00:57:17;;;;;;;0.70;0.70;;;;;;;;;;5014462;28;20235;-64
2022/04/09 00:59:46;;;;;;;0.70;0.70;;;;;;;;;;5019648;28;20239;-65
2022/04/09 01:02:13;;;;;;;2.20;1.97;;;;;;;;;;5011315;28;20223;-64
2022/04/09 01:04:42;;;;;;;1.00;1.00;;;;;;;;;;5020282;28;20222;-65
2022/04/09 01:07:10;;;;;;;0.90;0.90;;;;;;;;;;5008445;28;20215;-63
2022/04/09 01:09:38;;;;;;;1.10;1.10;;;;;;;;;;5016537;28;20249;-64
2022/04/09 01:12:07;;;;;;;1.77;1.43;;;;;;;;;;5017648;28;20234;-63
2022/04/09 01:14:36;;;;;;;4.03;2.70;;;;;;;;;;5014136;28;20202;-63
2022/04/09 01:17:05;;;;;;;0.80;0.80;;;;;;;;;;5001711;28;20657;-63
2022/04/09 01:19:34;;;;;;;1.30;1.30;;;;;;;;;;5016911;28;20251;-64
2022/04/09 01:22:01;;;;;;;2.33;2.23;;;;;;;;;;5013490;28;20054;-65
2022/04/09 01:24:29;;;;;;;1.10;1.10;;;;;;;;;;5018292;28;20203;-63
2022/04/09 01:26:56;;;;;;;1.13;1.13;;;;;;;;;;5014152;28;20237;-63
2022/04/09 01:29:24;;;;;;;3.40;1.03;;;;;;;;;;5013015;28;20212;-63
2022/04/09 01:31:51;;;;;;;1.07;1.07;;;;;;;;;;5018985;28;20652;-65
2022/04/09 01:34:19;;;;;;;2.80;0.90;;;;;;;;;;5012881;28;20289;-65
2022/04/09 01:36:47;;;;;;;0.97;0.97;;;;;;;;;;5015432;28;20203;-64
2022/04/09 01:39:17;;;;;;;1.00;1.00;;;;;;;;;;5015009;28;20286;-63
2022/04/09 01:41:45;;;;;;;0.90;0.90;;;;;;;;;;5016093;28;20289;-66
2022/04/09 01:44:12;;;;;;;1.77;1.67;;;;;;;;;;5015663;28;20207;-64
2022/04/09 01:46:44;;;;;;;1.07;1.07;;;;;;;;;;5017398;28;20214;-66
2022/04/09 01:49:13;;;;;;;1.10;1.10;;;;;;;;;;5007517;28;20235;-63
2022/04/09 01:51:41;;;;;;;1.20;1.20;;;;;;;;;;5018117;28;20215;-66
2022/04/09 01:54:08;;;;;;;1.30;1.30;;;;;;;;;;5014644;28;20716;-64
2022/04/09 01:56:35;;;;;;;1.60;1.60;;;;;;;;;;5014256;28;20578;-65
2022/04/09 01:59:04;;;;;;;2.30;2.20;;;;;;;;;;5010355;28;20254;-65
2022/04/09 02:01:33;;;;;;;2.30;2.20;;;;;;;;;;5013398;28;20551;-62
2022/04/09 02:04:00;;;;;;;2.20;2.10;;;;;;;;;;5004279;28;20235;-65
2022/04/09 02:06:28;;;;;;;2.50;2.30;;;;;;;;;;5021704;28;20229;-63
2022/04/09 02:08:55;;;;;;;1.90;1.80;;;;;;;;;;5009521;28;20454;-65
2022/04/09 02:11:23;;;;;;;2.20;2.03;;;;;;;;;;5026720;28;20624;-64
2022/04/09 02:13:52;;;;;;;1.90;1.80;;;;;;;;;;5017742;28;20222;-63
2022/04/09 02:16:19;;;;;;;1.90;1.80;;;;;;;;;;5017747;28;20221;-66
2022/04/09 02:18:47;;;;;;;1.50;1.50;;;;;;;;;;5018528;28;20315;-63
2022/04/09 02:21:14;;;;;;;1.70;1.60;;;;;;;;;;5018467;28;20261;-63
2022/04/09 02:23:42;;;;;;;1.83;1.73;;;;;;;;;;5009804;28;20735;-64
2022/04/09 02:26:09;;;;;;;2.10;2.00;;;;;;;;;;5014624;28;20215;-64
2022/04/09 02:28:37;;;;;;;1.50;1.50;;;;;;;;;;5008162;28;20270;-65
2022/04/09 02:31:05;;;;;;;1.60;1.60;;;;;;;;;;5004720;28;20203;-65
2022/04/09 02:33:32;;;;;;;1.50;1.50;;;;;;;;;;5014488;28;20235;-65
2022/04/09 02:36:00;;;;;;;2.00;1.90;;;;;;;;;;5013993;28;20198;-63
2022/04/09 02:38:27;;;;;;;1.97;1.87;;;;;;;;;;5013560;28;20688;-64
2022/04/09 02:40:55;;;;;;;3.00;2.10;;;;;;;;;;5012171;28;20219;-64
2022/04/09 02:43:22;;;;;;;2.07;1.97;;;;;;;;;;5015518;28;25163;-66
2022/04/09 02:45:50;;;;;;;2.13;2.03;;;;;;;;;;5015243;28;20298;-64
2022/04/09 02:48:18;;;;;;;2.17;1.97;;;;;;;;;;5009023;28;20595;-63
2022/04/09 02:50:45;;;;;;;2.50;2.30;;;;;;;;;;5008855;28;20584;-63
2022/04/09 02:53:12;;;;;;;3.07;2.00;;;;;;;;;;5007570;28;20847;-65
2022/04/09 02:55:40;;;;;;;2.40;2.20;;;;;;;;;;5013592;28;20234;-65
2022/04/09 02:58:07;;;;;;;2.10;2.00;;;;;;;;;;5011157;28;20219;-63
2022/04/09 03:00:35;;;;;;;3.20;2.60;;;;;;;;;;5017147;28;20588;-65
2022/04/09 03:03:02;;;;;;;6.63;4.97;;;;;;;;;;5016287;28;20297;-64
2022/04/09 03:05:30;;;;;;;2.53;2.33;;;;;;;;;;5006709;28;20555;-63
2022/04/09 03:07:57;;;;;;;3.20;3.00;;;;;;;;;;5004358;28;20302;-63
2022/04/09 03:10:26;;;;;;;4.13;3.90;;;;;;;;;;5010987;28;20206;-65
2022/04/09 03:12:55;;;;;;;9.33;8.63;;;;;;;;;;5007111;28;20237;-63
2022/04/09 03:15:23;;;;;;;3.83;3.53;;;;;;;;;;5006403;28;20327;-65
2022/04/09 03:17:50;;;;;;;3.80;3.40;;;;;;;;;;5012993;28;20230;-65
2022/04/09 03:20:18;;;;;;;2.97;2.70;;;;;;;;;;5010709;28;20770;-64
2022/04/09 03:22:46;;;;;;;3.43;3.13;;;;;;;;;;5008645;28;20228;-65
2022/04/09 03:25:18;;;;;;;3.60;3.30;;;;;;;;;;5013411;28;20299;-65
2022/04/09 03:27:45;;;;;;;3.80;3.37;;;;;;;;;;5005011;28;20201;-63
2022/04/09 03:30:14;;;;;;;4.73;4.23;;;;;;;;;;5011368;28;20264;-63
2022/04/09 03:32:44;;;;;;;4.57;4.17;;;;;;;;;;5013385;28;20237;-64
2022/04/09 03:35:12;;;;;;;5.93;4.10;;;;;;;;;;5015511;28;20204;-64
2022/04/09 03:37:40;;;;;;;4.53;4.13;;;;;;;;;;5017734;28;20226;-65
2022/04/09 03:40:08;;;;;;;18.03;12.97;;;;;;;;;;5018727;28;20216;-65
2022/04/09 03:42:35;;;;;;;6.57;5.97;;;;;;;;;;5020449;28;20227;-63
2022/04/09 03:45:03;;;;;;;7.27;6.53;;;;;;;;;;5013085;28;20670;-64
2022/04/09 03:47:33;;;;;;;8.17;7.47;;;;;;;;;;5011815;28;20209;-65
2022/04/09 03:50:01;;;;;;;5.50;5.00;;;;;;;;;;5014595;28;20214;-65
2022/04/09 03:52:28;;;;;;;4.50;4.10;;;;;;;;;;5019286;28;20250;-63
2022/04/09 03:54:56;;;;;;;3.87;3.47;;;;;;;;;;5019756;28;20236;-63
2022/04/09 03:57:23;;;;;;;4.37;3.93;;;;;;;;;;5014879;28;23116;-64
2022/04/09 03:59:55;;;;;;;5.40;4.13;;;;;;;;;;5008566;28;20235;-65
2022/04/09 04:02:23;;;;;;;4.07;3.30;;;;;;;;;;5001180;28;20273;-65
2022/04/09 04:04:50;;;;;;;3.53;3.20;;;;;;;;;;5004887;28;20302;-65
2022/04/09 04:07:20;;;;;;;4.03;3.43;;;;;;;;;;5012024;28;20213;-66
2022/04/09 04:09:48;;;;;;;4.30;3.90;;;;;;;;;;5019169;28;21034;-65
2022/04/09 04:12:15;;;;;;;4.83;4.07;;;;;;;;;;5018010;28;20227;-66
2022/04/09 04:14:43;;;;;;;4.80;4.40;;;;;;;;;;5012185;28;20683;-63
2022/04/09 04:17:10;;;;;;;6.53;5.93;;;;;;;;;;5012145;28;20281;-64
2022/04/09 04:19:39;;;;;;;5.47;4.97;;;;;;;;;;5011404;28;20774;-63
2022/04/09 04:22:08;;;;;;;4.90;4.60;;;;;;;;;;5005164;28;20228;-66
2022/04/09 04:24:37;;;;;;;4.27;3.97;;;;;;;;;;5015971;28;20675;-64
2022/04/09 04:27:05;;;;;;;3.60;3.30;;;;;;;;;;5012393;28;20776;-64
2022/04/09 04:29:34;;;;;;;5.23;4.10;;;;;;;;;;5020139;28;20289;-65
2022/04/09 04:32:01;;;;;;;4.17;3.60;;;;;;;;;;5019364;28;20258;-66
2022/04/09 04:34:29;;;;;;;4.50;4.10;;;;;;;;;;5013293;28;20211;-65
2022/04/09 04:36:56;;;;;;;5.10;4.60;;;;;;;;;;5011399;28;20219;-65
2022/04/09 04:39:24;;;;;;;8.37;6.30;;;;;;;;;;5013153;28;20219;-64
2022/04/09 04:41:51;;;;;;;8.50;6.40;;;;;;;;;;5018117;28;20216;-65
2022/04/09 04:44:19;;;;;;;7.33;5.63;;;;;;;;;;5019223;28;20206;-65
2022/04/09 04:46:46;;;;;;;6.40;5.80;;;;;;;;;;5016195;28;20250;-64
2022/04/09 04:49:14;;;;;;;8.77;5.87;;;;;;;;;;5009256;28;20231;-64
2022/04/09 04:51:41;;;;;;;6.47;5.87;;;;;;;;;;5015224;28;20211;-64
2022/04/09 04:54:08;;;;;;;6.97;6.27;;;;;;;;;;5008914;28;20687;-65
2022/04/09 04:56:36;;;;;;;8.60;7.80;;;;;;;;;;5012346;28;20212;-64
2022/04/09 04:59:03;;;;;;;6.20;5.43;;;;;;;;;;5016870;28;20286;-63
2022/04/09 05:01:30;;;;;;;6.73;5.80;;;;;;;;;;5003096;28;20211;-65
2022/04/09 05:03:58;;;;;;;7.90;5.63;;;;;;;;;;5013706;28;20229;-64
2022/04/09 05:06:26;;;;;;;7.90;6.40;;;;;;;;;;5004828;28;20217;-63
2022/04/09 05:08:53;;;;;;;9.73;7.20;;;;;;;;;;5027492;28;20220;-66
2022/04/09 05:11:21;;;;;;;12.73;8.53;;;;;;;;;;5013657;28;20216;-65
2022/04/09 05:13:48;;;;;;;15.47;9.60;;;;;;;;;;5013242;28;20220;-64
2022/04/09 05:16:16;;;;;;;26.97;16.10;;;;;;;;;;5009629;28;20213;-65
2022/04/09 05:18:43;;;;;;;9.60;8.60;;;;;;;;;;5008881;28;20224;-66
2022/04/09 05:21:11;;;;;;;11.77;9.23;;;;;;;;;;5005261;28;20222;-65
2022/04/09 05:23:38;;;;;;;14.50;12.93;;;;;;;;;;5018747;28;20219;-64
2022/04/09 05:26:05;;;;;;;13.77;11.70;;;;;;;;;;5019534;28;20204;-64
2022/04/09 05:28:33;;;;;;;13.37;10.43;;;;;;;;;;5002028;28;20263;-64
2022/04/09 05:31:00;;;;;;;13.50;10.70;;;;;;;;;;5011271;28;20212;-64
2022/04/09 05:33:28;;;;;;;15.47;9.93;;;;;;;;;;5004867;28;20238;-65
2022/04/09 05:35:58;;;;;;;12.00;8.93;;;;;;;;;;5009870;28;20218;-65
2022/04/09 05:38:25;;;;;;;10.93;9.03;;;;;;;;;;5010668;28;20670;-65
2022/04/09 05:40:52;;;;;;;14.77;9.10;;;;;;;;;;5013893;28;20578;-65
2022/04/09 05:43:20;;;;;;;14.40;9.00;;;;;;;;;;5010355;28;20228;-65
2022/04/09 05:45:47;;;;;;;16.20;10.40;;;;;;;;;;5011078;28;20559;-66
2022/04/09 05:48:15;;;;;;;11.63;8.57;;;;;;;;;;5008333;28;20647;-65
2022/04/09 05:50:42;;;;;;;19.10;13.17;;;;;;;;;;5010878;28;20207;-65
2022/04/09 05:53:09;;;;;;;11.17;8.93;;;;;;;;;;4993031;28;20228;-63
2022/04/09 05:55:37;;;;;;;11.63;9.23;;;;;;;;;;5001707;28;20211;-64
2022/04/09 05:58:04;;;;;;;11.60;8.57;;;;;;;;;;5008110;28;20276;-64
2022/04/09 06:00:32;;;;;;;9.37;8.00;;;;;;;;;;5013276;28;20746;-63
2022/04/09 06:03:00;;;;;;;11.00;8.57;;;;;;;;;;5009400;28;20745;-64
2022/04/09 06:05:28;;;;;;;10.50;9.40;;;;;;;;;;5019188;28;20695;-66
2022/04/09 06:07:55;;;;;;;9.50;8.17;;;;;;;;;;5009120;28;20212;-63
2022/04/09 06:10:22;;;;;;;10.97;8.83;;;;;;;;;;5007127;28;20208;-66
2022/04/09 06:12:49;;;;;;;10.57;8.33;;;;;;;;;;5010509;28;20287;-65
2022/04/09 06:15:17;;;;;;;13.67;9.87;;;;;;;;;;5007955;28;20747;-64
2022/04/09 06:17:44;;;;;;;14.30;10.03;;;;;;;;;;5008446;28;20223;-63
2022/04/09 06:20:12;;;;;;;11.07;8.80;;;;;;;;;;5009649;28;20228;-65
2022/04/09 06:22:40;;;;;;;9.60;8.20;;;;;;;;;;5006386;28;20243;-63
2022/04/09 06:25:08;;;;;;;9.17;7.83;;;;;;;;;;5005816;28;20636;-64
2022/04/09 06:27:39;;;;;;;9.67;8.67;;;;;;;;;;5010472;28;20205;-62
2022/04/09 06:30:07;;;;;;;10.27;8.60;;;;;;;;;;5003049;28;20733;-63
2022/04/09 06:32:34;;;;;;;11.53;9.87;;;;;;;;;;5007221;28;20621;-66
2022/04/09 06:35:02;;;;;;;14.00;11.67;;;;;;;;;;5012539;28;20883;-65
2022/04/09 06:37:29;;;;;;;12.20;9.10;;;;;;;;;;4993043;28;20271;-65
2022/04/09 06:39:56;;;;;;;9.33;8.13;;;;;;;;;;5013911;28;20789;-64
2022/04/09 06:42:24;;;;;;;9.13;7.27;;;;;;;;;;5018450;28;20261;-65
2022/04/09 06:44:51;;;;;;;10.40;8.33;;;;;;;;;;5011872;28;20800;-63
2022/04/09 06:47:20;;;;;;;9.53;7.47;;;;;;;;;;5010695;28;20208;-63
2022/04/09 06:49:47;;;;;;;11.53;7.97;;;;;;;;;;5024657;28;20209;-64
2022/04/09 06:52:15;;;;;;;13.20;8.17;;;;;;;;;;5012218;28;20230;-64
2022/04/09 06:54:42;;;;;;;12.33;8.73;;;;;;;;;;5009882;28;20248;-65
2022/04/09 06:57:09;;;;;;;13.57;8.57;;;;;;;;;;5001507;28;20940;-66
2022/04/09 06:59:37;;;;;;;10.93;9.13;;;;;;;;;;5005741;28;21004;-64
2022/04/09 07:02:04;;;;;;;11.77;9.87;;;;;;;;;;5006687;28;20198;-63
2022/04/09 07:04:32;;;;;;;11.00;9.13;;;;;;;;;;5003185;28;20237;-65
2022/04/09 07:07:03;;;;;;;11.07;9.37;;;;;;;;;;4998645;28;20232;-65
2022/04/09 07:09:30;;;;;;;10.03;8.17;;;;;;;;;;5000425;28;20221;-64
2022/04/09 07:11:58;;;;;;;13.83;8.80;;;;;;;;;;5017743;28;20740;-64
2022/04/09 07:14:25;;;;;;;10.03;8.90;;;;;;;;;;5015446;28;20210;-66
2022/04/09 07:16:55;;;;;;;10.03;7.27;;;;;;;;;;5015545;28;20728;-64
2022/04/09 07:19:22;;;;;;;10.30;7.93;;;;;;;;;;5017165;28;20316;-64
2022/04/09 07:21:50;;;;;;;8.93;7.73;;;;;;;;;;5022859;28;20200;-63
2022/04/09 07:24:19;;;;;;;9.80;8.43;;;;;;;;;;5032275;28;20208;-64
2022/04/09 07:26:46;;;;;;;11.30;7.80;;;;;;;;;;5018987;28;20647;-65
2022/04/09 07:29:13;;;;;;;8.23;7.20;;;;;;;;;;5023777;28;20217;-63
2022/04/09 07:31:42;;;;;;;8.50;7.40;;;;;;;;;;5022743;28;20214;-64
2022/04/09 07:34:10;;;;;;;8.90;6.93;;;;;;;;;;5018716;28;20231;-65
2022/04/09 07:36:38;;;;;;;8.30;6.63;;;;;;;;;;5018818;28;20732;-64
2022/04/09 07:39:08;;;;;;;8.70;6.70;;;;;;;;;;5018171;28;20305;-64
2022/04/09 07:41:36;;;;;;;9.93;7.20;;;;;;;;;;5016508;28;20214;-65
2022/04/09 07:44:03;;;;;;;8.33;6.93;;;;;;;;;;5019785;28;20305;-63
2022/04/09 07:46:31;;;;;;;8.37;6.70;;;;;;;;;;5016142;28;20195;-62
2022/04/09 07:48:59;;;;;;;8.83;6.30;;;;;;;;;;5008074;28;20211;-64
2022/04/09 07:51:26;;;;;;;8.40;7.23;;;;;;;;;;5015268;28;20872;-64
2022/04/09 07:53:54;;;;;;;8.57;6.93;;;;;;;;;;5015287;28;20235;-62
2022/04/09 07:56:21;;;;;;;9.60;6.90;;;;;;;;;;5014557;28;20228;-64
2022/04/09 07:58:49;;;;;;;10.50;6.40;;;;;;;;;;5013577;28;20215;-62
2022/04/09 08:01:18;;;;;;;9.83;7.43;;;;;;;;;;5002415;28;20211;-64
2022/04/09 08:03:49;;;;;;;6.97;6.27;;;;;;;;;;5000297;28;20226;-63
2022/04/09 08:06:17;;;;;;;11.70;6.00;;;;;;;;;;5004280;28;20732;-61
2022/04/09 08:08:44;;;;;;;6.80;5.53;;;;;;;;;;5012727;28;20206;-61
2022/04/09 08:11:12;;;;;;;7.40;5.77;;;;;;;;;;5007661;28;20960;-63
2022/04/09 08:13:39;;;;;;;6.63;5.87;;;;;;;;;;5011426;28;20317;-63
2022/04/09 08:16:07;;;;;;;7.20;5.60;;;;;;;;;;5015880;28;21520;-62
2022/04/09 08:18:34;;;;;;;7.57;5.83;;;;;;;;;;5009549;28;20204;-64
2022/04/09 08:21:03;;;;;;;10.40;6.47;;;;;;;;;;5013305;28;20247;-64
2022/04/09 08:23:31;;;;;;;7.00;6.30;;;;;;;;;;5007967;28;20340;-64
2022/04/09 08:26:00;;;;;;;10.87;7.27;;;;;;;;;;5012010;28;20206;-62
2022/04/09 08:28:31;;;;;;;11.27;6.30;;;;;;;;;;5006770;28;20204;-64
2022/04/09 08:30:59;;;;;;;7.27;6.57;;;;;;;;;;5010698;28;20787;-63
2022/04/09 08:33:27;;;;;;;6.07;5.53;;;;;;;;;;5003823;28;20337;-63
2022/04/09 08:35:54;;;;;;;7.47;6.13;;;;;;;;;;4999794;28;20762;-63
2022/04/09 08:38:22;;;;;;;8.70;5.00;;;;;;;;;;4999346;28;20203;-63
2022/04/09 08:40:50;;;;;;;7.80;5.70;;;;;;;;;;4989489;28;20274;-64
2022/04/09 08:43:18;;;;;;;8.10;5.83;;;;;;;;;;5000457;28;20963;-63
2022/04/09 08:45:46;;;;;;;7.97;6.07;;;;;;;;;;5002097;28;21020;-64
2022/04/09 08:48:14;;;;;;;6.77;6.00;;;;;;;;;;5006546;28;20214;-64
2022/04/09 08:50:44;;;;;;;6.53;5.83;;;;;;;;;;5007269;28;20202;-63
2022/04/09 08:53:14;;;;;;;5.27;4.77;;;;;;;;;;5013245;28;20297;-65
2022/04/09 08:55:51;;;;;;;7.60;5.53;;;;;;;;;;5013222;28;20242;-64
2022/04/09 08:58:24;;;;;;;12.47;6.17;;;;;;;;;;5003815;28;20223;-63
2022/04/09 09:00:55;;;;;;;8.70;7.03;;;;;;;;;;5006769;28;20241;-65
2022/04/09 09:03:26;;;;;;;8.50;6.60;;;;;;;;;;4999423;28;20226;-65
2022/04/09 09:05:58;;;;;;;9.00;5.23;;;;;;;;;;4997017;28;20219;-64
2022/04/09 09:08:37;;;;;;;10.33;7.13;;;;;;;;;;5006131;28;20206;-63
2022/04/09 09:11:20;;;;;;;9.20;5.80;;;;;;;;;;5005635;28;20247;-65
2022/04/09 09:13:51;;;;;;;7.80;5.40;;;;;;;;;;5004605;28;20226;-64
2022/04/09 09:16:28;;;;;;;9.63;5.53;;;;;;;;;;5004662;28;20221;-62
2022/04/09 09:19:09;;;;;;;8.03;5.30;;;;;;;;;;4996086;28;20205;-63
2022/04/09 09:21:51;;;;;;;5.13;4.53;;;;;;;;;;5007376;28;20740;-64
2022/04/09 09:24:35;;;;;;;5.60;4.93;;;;;;;;;;5012638;28;20357;-65
2022/04/09 09:27:11;;;;;;;7.37;4.90;;;;;;;;;;5003399;28;20234;-62
2022/04/09 09:29:44;;;;;;;7.17;4.90;;;;;;;;;;4989458;28;20480;-62
2022/04/09 09:32:25;;;;;;;5.63;4.93;;;;;;;;;;5016920;28;20313;-64
2022/04/09 09:35:13;;;;;;;;;;;;;;;;;;;;;
2022/04/09 09:37:47;;;;;;;6.17;4.10;;;;;;;;;;5009761;28;20210;-62
2022/04/09 09:40:51;;;;;;;6.97;4.57;;;;;;;;;;5007904;28;20648;-63
2022/04/09 09:43:45;;;;;;;5.60;4.20;;;;;;;;;;5007943;28;20234;-63
2022/04/09 09:46:24;;;;;;;5.80;3.83;;;;;;;;;;5019062;28;20776;-63
2022/04/09 09:49:06;;;;;;;7.80;4.93;;;;;;;;;;5009039;28;20840;-62
2022/04/09 09:51:44;;;;;;;5.13;4.20;;;;;;;;;;5006370;28;20206;-64
2022/04/09 09:54:25;;;;;;;5.60;4.30;;;;;;;;;;4997120;28;20217;-64
2022/04/09 09:57:01;;;;;;;6.07;3.87;;;;;;;;;;5001252;28;21302;-64
2022/04/09 09:59:44;;;;;;;9.33;4.30;;;;;;;;;;4988095;28;20222;-63
2022/04/09 10:02:25;;;;;;;4.50;4.10;;;;;;;;;;5013835;28;20230;-62
2022/04/09 10:04:58;;;;;;;8.23;4.83;;;;;;;;;;5013180;28;20257;-65
2022/04/09 10:07:42;;;;;;;6.40;4.10;;;;;;;;;;5013128;28;20556;-62
2022/04/09 10:10:12;;;;;;;5.23;4.00;;;;;;;;;;5018260;28;20213;-62
2022/04/09 10:12:43;;;;;;;4.67;4.13;;;;;;;;;;5021395;28;20306;-65
2022/04/09 10:15:12;;;;;;;4.03;3.57;;;;;;;;;;5011714;28;20670;-62
2022/04/09 10:17:48;;;;;;;4.43;4.00;;;;;;;;;;5013890;28;20207;-65
2022/04/09 10:20:21;;;;;;;4.67;3.87;;;;;;;;;;5011123;28;20767;-65
2022/04/09 10:22:59;;;;;;;4.87;3.80;;;;;;;;;;5016709;28;20219;-63
2022/04/09 10:25:41;;;;;;;6.00;4.30;;;;;;;;;;5016485;28;20202;-63
2022/04/09 10:28:29;;;;;;;5.57;4.53;;;;;;;;;;5011863;28;20643;-63
2022/04/09 10:31:04;;;;;;;4.67;4.10;;;;;;;;;;5017822;28;20214;-63
2022/04/09 10:33:36;;;;;;;4.83;3.90;;;;;;;;;;5011632;28;20227;-62
2022/04/09 10:36:11;;;;;;;9.77;5.13;;;;;;;;;;5013275;28;20214;-62
2022/04/09 10:38:41;;;;;;;6.77;4.80;;;;;;;;;;5016615;28;20305;-63
2022/04/09 10:41:10;;;;;;;11.53;5.00;;;;;;;;;;5021553;28;20258;-64
2022/04/09 10:43:42;;;;;;;6.43;3.67;;;;;;;;;;5022136;28;20250;-63
2022/04/09 10:46:21;;;;;;;6.67;4.00;;;;;;;;;;5019287;28;20207;-64
2022/04/09 10:49:14;;;;;;;4.07;3.10;;;;;;;;;;5020593;28;20209;-62
2022/04/09 10:52:03;;;;;;;7.03;3.77;;;;;;;;;;5018031;28;20207;-62
2022/04/09 10:54:34;;;;;;;6.40;3.80;;;;;;;;;;5024635;28;20256;-62
2022/04/09 10:57:23;;;;;;;5.97;4.03;;;;;;;;;;5019449;28;20206;-65
2022/04/09 10:59:59;;;;;;;5.73;3.60;;;;;;;;;;5012607;28;20606;-62
2022/04/09 11:02:36;;;;;;;5.23;3.73;;;;;;;;;;5014832;28;20229;-64
2022/04/09 11:05:23;;;;;;;5.70;3.50;;;;;;;;;;5013111;28;20653;-64
2022/04/09 11:08:18;;;;;;;6.03;3.10;;;;;;;;;;4999349;28;20874;-64
2022/04/09 11:10:49;;;;;;;5.80;3.97;;;;;;;;;;5015464;28;20244;-64
2022/04/09 11:13:30;;;;;;;3.83;2.40;;;;;;;;;;5019033;28;20346;-64
2022/04/09 11:16:16;;;;;;;6.37;3.03;;;;;;;;;;5016127;28;20203;-63
2022/04/09 11:18:55;;;;;;;20.17;10.47;;;;;;;;;;5018151;28;20613;-64
2022/04/09 11:21:25;;;;;;;4.53;2.87;;;;;;;;;;5018555;28;20310;-64
2022/04/09 11:24:13;;;;;;;5.13;3.00;;;;;;;;;;5010172;28;20453;-65
2022/04/09 11:26:54;;;;;;;8.53;3.10;;;;;;;;;;5005851;28;20211;-64
2022/04/09 11:29:34;;;;;;;7.90;3.33;;;;;;;;;;4995835;28;20222;-64
2022/04/09 11:32:04;;;;;;;4.70;3.30;;;;;;;;;;4982528;28;20215;-67
2022/04/09 11:35:05;;;;;;;4.33;3.50;;;;;;;;;;5010174;28;20206;-64
2022/04/09 11:37:43;;;;;;;3.77;2.80;;;;;;;;;;5012142;28;20222;-65
2022/04/09 11:40:16;;;;;;;6.43;3.77;;;;;;;;;;4997189;28;20494;-67
2022/04/09 11:42:53;;;;;;;4.93;3.10;;;;;;;;;;4989093;28;20233;-65
2022/04/09 11:45:28;;;;;;;5.40;3.63;;;;;;;;;;5011880;28;20291;-63
2022/04/09 11:47:58;;;;;;;10.27;4.57;;;;;;;;;;5007722;28;20207;-64
2022/04/09 11:50:40;;;;;;;11.30;6.03;;;;;;;;;;4997697;28;20207;-64
2022/04/09 11:53:24;;;;;;;11.43;4.10;;;;;;;;;;5015318;28;20242;-63
2022/04/09 11:55:59;;;;;;;5.87;3.20;;;;;;;;;;5020250;28;20206;-65
2022/04/09 11:58:34;;;;;;;5.17;3.30;;;;;;;;;;5019246;28;20207;-65
2022/04/09 12:01:10;;;;;;;7.00;3.07;;;;;;;;;;5016254;28;20226;-66
2022/04/09 12:03:38;;;;;;;5.23;2.97;;;;;;;;;;5011856;28;20249;-64
2022/04/09 12:06:31;;;;;;;7.17;3.20;;;;;;;;;;5019511;28;20219;-63
2022/04/09 12:08:59;;;;;;;3.87;2.93;;;;;;;;;;5011636;28;20214;-65
2022/04/09 12:11:27;;;;;;;7.53;3.27;;;;;;;;;;5012786;28;20211;-63
2022/04/09 12:13:54;;;;;;;4.03;2.57;;;;;;;;;;5004985;28;20262;-65
2022/04/09 12:16:22;;;;;;;4.73;2.53;;;;;;;;;;5004791;28;20341;-65
2022/04/09 12:18:50;;;;;;;9.43;2.60;;;;;;;;;;5022014;28;20645;-65
2022/04/09 12:21:24;;;;;;;3.47;2.80;;;;;;;;;;5018307;28;20235;-63
2022/04/09 12:24:05;;;;;;;4.43;2.47;;;;;;;;;;5007715;28;22885;-65
2022/04/09 12:26:34;;;;;;;5.87;3.10;;;;;;;;;;5014849;28;20210;-64
2022/04/09 12:29:19;;;;;;;3.00;2.70;;;;;;;;;;4998488;28;20199;-63
2022/04/09 12:31:48;;;;;;;3.90;2.77;;;;;;;;;;5000200;28;20294;-65
2022/04/09 12:34:20;;;;;;;4.13;2.63;;;;;;;;;;5004396;28;20436;-65
2022/04/09 12:37:05;;;;;;;7.27;5.53;;;;;;;;;;5018030;28;20242;-65
2022/04/09 12:39:40;;;;;;;5.03;2.90;;;;;;;;;;5017896;28;20298;-63
2022/04/09 12:42:31;;;;;;;4.10;2.23;;;;;;;;;;5014475;28;20318;-65
2022/04/09 12:45:11;;;;;;;6.53;4.93;;;;;;;;;;5020680;28;20210;-64
2022/04/09 12:47:39;;;;;;;13.83;11.37;;;;;;;;;;5019818;28;20217;-63
2022/04/09 12:50:17;;;;;;;7.40;2.90;;;;;;;;;;5007665;28;20210;-64
2022/04/09 12:52:46;;;;;;;4.40;2.80;;;;;;;;;;5019634;28;20222;-64
2022/04/09 12:55:16;;;;;;;2.43;2.27;;;;;;;;;;5017513;28;20210;-64
2022/04/09 12:57:43;;;;;;;5.93;3.17;;;;;;;;;;5016926;28;20199;-64
2022/04/09 13:00:12;;;;;;;6.33;3.27;;;;;;;;;;5022651;28;20198;-64
2022/04/09 13:02:46;;;;;;;3.10;2.80;;;;;;;;;;5013516;28;20223;-64
2022/04/09 13:05:15;;;;;;;4.43;3.07;;;;;;;;;;5011181;28;20206;-64
2022/04/09 13:07:42;;;;;;;4.30;3.00;;;;;;;;;;5023922;28;20210;-65
2022/04/09 13:10:12;;;;;;;4.03;2.73;;;;;;;;;;5023782;28;20203;-65
2022/04/09 13:12:40;;;;;;;8.53;3.00;;;;;;;;;;5013300;28;20227;-65
2022/04/09 13:15:08;;;;;;;6.27;3.20;;;;;;;;;;5014107;28;20203;-65
2022/04/09 13:17:37;;;;;;;5.00;2.80;;;;;;;;;;5015046;28;20208;-65
2022/04/09 13:20:09;;;;;;;3.07;2.53;;;;;;;;;;5016452;28;20202;-65
2022/04/09 13:22:37;;;;;;;4.17;2.20;;;;;;;;;;5012380;28;20223;-64
2022/04/09 13:25:06;;;;;;;4.17;2.70;;;;;;;;;;5009417;28;20206;-64
2022/04/09 13:27:33;;;;;;;3.17;2.57;;;;;;;;;;5001756;28;20856;-63
2022/04/09 13:30:01;;;;;;;6.43;2.47;;;;;;;;;;4999785;28;20222;-65
2022/04/09 13:32:30;;;;;;;3.77;2.50;;;;;;;;;;4999636;28;20229;-63
2022/04/09 13:34:57;;;;;;;4.00;1.93;;;;;;;;;;5003326;28;20763;-64
2022/04/09 13:37:24;;;;;;;2.10;1.70;;;;;;;;;;5001168;28;20234;-65
2022/04/09 13:39:56;;;;;;;3.17;1.90;;;;;;;;;;5007555;28;20294;-61
2022/04/09 13:42:23;;;;;;;6.83;2.43;;;;;;;;;;4999029;28;20227;-64
2022/04/09 13:44:50;;;;;;;4.07;1.97;;;;;;;;;;5011175;28;20214;-66
2022/04/09 13:47:18;;;;;;;2.80;2.13;;;;;;;;;;5002766;28;20215;-64
2022/04/09 13:49:45;;;;;;;2.93;1.90;;;;;;;;;;4999506;28;20211;-64
2022/04/09 13:52:13;;;;;;;5.10;2.33;;;;;;;;;;5003523;28;20231;-65
2022/04/09 13:54:40;;;;;;;3.23;2.13;;;;;;;;;;5004387;28;20218;-65
2022/04/09 13:57:07;;;;;;;3.57;2.40;;;;;;;;;;5006406;28;20225;-64
2022/04/09 13:59:35;;;;;;;3.43;2.30;;;;;;;;;;5010836;28;20217;-65
2022/04/09 14:02:04;;;;;;;5.37;3.20;;;;;;;;;;5003065;28;20218;-65
2022/04/09 14:04:33;;;;;;;3.90;2.70;;;;;;;;;;5002874;28;20615;-65
2022/04/09 14:07:00;;;;;;;2.43;2.00;;;;;;;;;;5006893;28;23065;-65
2022/04/09 14:09:27;;;;;;;2.83;2.03;;;;;;;;;;5010411;28;20199;-65
2022/04/09 14:11:55;;;;;;;7.70;2.27;;;;;;;;;;5004475;28;20218;-64
2022/04/09 14:14:24;;;;;;;5.80;2.50;;;;;;;;;;4999550;28;20250;-65
2022/04/09 14:16:52;;;;;;;3.90;2.40;;;;;;;;;;5018914;28;20266;-63
2022/04/09 14:19:20;;;;;;;5.10;2.40;;;;;;;;;;5009815;28;20203;-64
2022/04/09 14:21:48;;;;;;;3.40;2.20;;;;;;;;;;5007222;28;20235;-64
2022/04/09 14:24:15;;;;;;;5.67;2.40;;;;;;;;;;5010533;28;20231;-64
2022/04/09 14:26:43;;;;;;;5.37;1.97;;;;;;;;;;5002365;28;20257;-65
2022/04/09 14:29:10;;;;;;;5.37;3.93;;;;;;;;;;5003280;28;20206;-63
2022/04/09 14:31:38;;;;;;;4.40;2.70;;;;;;;;;;5001409;28;20215;-64
2022/04/09 14:34:06;;;;;;;8.47;3.03;;;;;;;;;;5004203;28;20719;-65
2022/04/09 14:36:33;;;;;;;4.70;2.20;;;;;;;;;;5005144;28;30791;-64
2022/04/09 14:39:05;;;;;;;4.40;2.10;;;;;;;;;;5011438;28;20202;-66
2022/04/09 14:41:32;;;;;;;1.87;1.60;;;;;;;;;;5009481;28;20234;-66
2022/04/09 14:44:00;;;;;;;3.83;1.77;;;;;;;;;;5009859;28;20293;-64
2022/04/09 14:46:27;;;;;;;3.67;2.10;;;;;;;;;;5011502;28;20206;-67
2022/04/09 14:48:55;;;;;;;2.90;1.73;;;;;;;;;;5009873;28;20203;-68
2022/04/09 14:51:22;;;;;;;6.37;1.70;;;;;;;;;;4996861;28;20214;-67
2022/04/09 14:53:50;;;;;;;2.47;2.00;;;;;;;;;;5009550;28;20230;-65
2022/04/09 14:56:17;;;;;;;3.37;1.80;;;;;;;;;;5003871;28;20225;-65
2022/04/09 14:58:44;;;;;;;1.97;1.60;;;;;;;;;;5003996;28;20211;-66